Latest Weather Observations for Devonport Airport

IDT60801

Issued at 10:11 am EST Monday 16 September 2019 (issued every 10 minutes, with the page automatically refreshed every 10 minutes)

About weather observations | Map of weather stations | Latest weather observations for TAS | Other Formats
Station Details ID: 091126 Name: DEVONPORT AIRPORT Lat: -41.17 Lon: 146.43 Height: 8.0 m
Data from the previous 72 hours. | See also: Recent months at Devonport Airport
Date/Time
EST
Temp
°C
App
Temp
°C
Dew
Point
°C
Rel
Hum
%
Delta-T
°C
Wind Press
QNH
hPa
Press
MSL
hPa
Rain since
9am
mm
Dir  Spd
km/h
Gust
km/h
Spd
kts
Gust
kts
16/10:00am 10.9 2.9 0.3 48 4.3 SW 32 44 17 24 1016.2 1016.3 0.0
16/09:30am 10.4 3.2 0.4 50 4.1 SW 28 37 15 20 1015.8 1015.9 0.0
16/09:00am 9.5 1.2 -0.1 51 3.8 WSW 33 43 18 23 1015.4 1015.5 0.0
16/08:44am 9.5 1.9 0.4 53 3.7 SW 30 48 16 26 1015.1 1015.2 0.0
16/08:30am 9.3 2.5 1.0 56 3.4 SW 26 37 14 20 1014.9 1015.0 0.0
16/08:00am 8.5 2.2 1.6 62 2.8 SW 24 30 13 16 1014.3 1014.4 0.0
16/07:30am 8.0 3.8 1.6 64 2.6 SW 13 20 7 11 1013.9 1014.0 0.0
16/07:00am 6.9 1.0 1.4 68 2.2 WSW 22 30 12 16 1013.5 1013.6 0.0
16/06:30am 7.2 0.4 0.9 64 2.5 W 26 41 14 22 1012.8 1012.9 0.0
16/06:00am 7.2 0.0 0.9 64 2.5 WSW 28 33 15 18 1012.1 1012.2 0.0
16/05:30am 7.3 0.2 1.2 65 2.5 WSW 28 44 15 24 1011.5 1011.6 0.0
16/05:07am 7.3 -1.1 1.8 68 2.2 WSW 35 54 19 29 1011.2 1011.3 0.0
16/05:00am 8.1 -0.3 1.5 63 2.7 W 35 48 19 26 1011.1 1011.2 0.0
16/04:30am 8.5 0.1 1.4 61 2.9 W 35 54 19 29 1009.8 1009.9 0.0
16/04:01am 8.5 0.8 2.1 64 2.7 W 32 50 17 27 1009.4 1009.5 0.0
16/04:00am 8.5 0.8 2.3 65 2.6 W 32 43 17 23 1009.4 1009.5 0.0
16/03:30am 8.9 1.8 3.3 68 2.4 W 30 35 16 19 1008.9 1008.9 0.0
16/03:00am 8.7 0.9 3.1 68 2.4 W 33 41 18 22 1008.5 1008.5 0.0
16/02:30am 9.3 1.2 3.5 67 2.5 W 35 50 19 27 1008.4 1008.4 0.0
16/02:00am 9.5 2.0 4.5 71 2.2 WNW 33 41 18 22 1008.5 1008.5 0.0
16/01:30am 9.5 1.3 4.9 73 2.1 W 37 50 20 27 1008.8 1008.8 0.0
16/01:19am 9.5 1.8 5.3 75 1.9 W 35 54 19 29 1008.8 1008.8 0.0
16/01:00am 9.7 1.7 5.9 77 1.7 WNW 37 48 20 26 1008.7 1008.7 0.0
16/12:30am 9.7 1.4 5.9 77 1.7 WNW 39 48 21 26 1008.6 1008.6 0.0
16/12:00am 10.0 2.1 6.0 76 1.8 WNW 37 44 20 24 1009.0 1009.0 0.0
 
Date/Time
EST
Temp
°C
App
Temp
°C
Dew
Point
°C
Rel
Hum
%
Delta-T
°C
Wind Press
QNH
hPa
Press
MSL
hPa
Rain since
9am
mm
Dir  Spd
km/h
Gust
km/h
Spd
kts
Gust
kts
15/11:30pm 9.9 2.7 5.7 75 1.9 WNW 33 43 18 23 1009.4 1009.5 0.0
15/11:00pm 9.7 3.4 5.7 76 1.8 WNW 28 37 15 20 1009.5 1009.6 0.0
15/10:30pm 8.8 4.1 5.0 77 1.7 W 19 26 10 14 1009.8 1009.9 0.0
15/10:00pm 8.1 4.2 3.6 73 1.9 W 13 19 7 10 1009.6 1009.7 0.0
15/09:30pm 8.7 3.7 3.5 70 2.2 W 19 26 10 14 1009.8 1009.9 0.0
15/09:00pm 9.4 3.8 3.4 66 2.6 W 22 28 12 15 1010.0 1010.1 0.0
15/08:30pm 10.6 2.5 3.2 60 3.2 W 35 46 19 25 1010.2 1010.3 0.0
15/08:00pm 11.0 5.0 3.3 59 3.4 W 24 33 13 18 1010.0 1010.1 0.0
15/07:30pm 11.5 5.5 3.3 57 3.6 WNW 24 30 13 16 1010.0 1010.1 0.0
15/07:00pm 11.5 6.3 3.5 58 3.5 W 20 28 11 15 1009.8 1009.9 0.0
15/06:30pm 12.1 5.7 5.0 62 3.3 WNW 28 33 15 18 1009.6 1009.7 0.0
15/06:00pm 12.3 6.2 6.4 67 2.8 WNW 28 33 15 18 1009.1 1009.2 0.0
15/05:30pm 12.5 6.6 7.4 71 2.5 WNW 28 33 15 18 1009.2 1009.3 0.0
15/05:00pm 12.6 6.6 8.5 76 2.0 NW 30 35 16 19 1009.0 1009.0 0.0
15/04:30pm 12.8 6.8 8.7 76 2.0 WNW 30 39 16 21 1009.0 1009.0 0.0
15/04:00pm 12.6 6.5 9.6 82 1.5 NW 32 43 17 23 1009.0 1009.0 0.0
15/03:30pm 12.7 5.6 9.5 81 1.6 NW 37 44 20 24 1009.2 1009.3 0.0
15/03:00pm 13.1 5.6 9.5 79 1.8 NW 39 48 21 26 1009.8 1009.9 0.0
15/02:30pm 13.2 5.5 10.0 81 1.6 NW 41 52 22 28 1009.9 1010.0 0.0
15/02:00pm 13.0 5.7 10.2 83 1.4 NW 39 54 21 29 1010.0 1010.1 0.0
15/01:30pm 13.3 6.7 10.1 81 1.7 NW 35 43 19 23 1010.2 1010.3 0.0
15/01:00pm 13.9 7.9 10.9 82 1.6 NW 33 41 18 22 1010.4 1010.5 0.0
15/12:30pm 13.8 8.5 11.1 84 1.4 NW 30 37 16 20 1010.3 1010.4 0.0
15/12:00pm 13.8 8.1 11.0 83 1.5 NW 32 37 17 20 1011.0 1011.1 0.0
15/11:30am 14.0 8.1 10.6 80 1.8 NW 32 39 17 21 1011.5 1011.6 0.0
15/11:00am 14.5 8.6 10.5 77 2.1 NW 32 37 17 20 1011.8 1011.9 0.0
15/10:30am 14.3 9.0 11.1 81 1.7 NW 30 35 16 19 1011.8 1011.9 0.0
15/10:00am 14.0 8.9 12.0 88 1.1 NW 30 37 16 20 1011.8 1011.9 0.0
15/09:30am 14.0 8.6 12.9 93 0.6 NW 33 39 18 21 1012.1 1012.2 0.0
15/09:00am 13.0 7.6 12.2 95 0.4 NW 32 39 17 21 1012.2 1012.3 0.2
15/08:30am 13.3 9.2 12.7 96 0.3 NW 26 33 14 18 1012.3 1012.4 0.2
15/08:00am 12.8 9.1 12.6 99 0.1 WNW 24 32 13 17 1012.4 1012.5 0.2
15/07:30am 12.5 8.3 12.3 99 0.1 WNW 26 30 14 16 1012.1 1012.2 0.2
15/07:00am 12.1 7.4 11.9 99 0.1 WNW 28 32 15 17 1012.0 1012.1 0.2
15/06:58am 12.1 7.8 11.9 99 0.1 WNW 26 32 14 17 1012.0 1012.1 0.2
15/06:30am 11.9 7.1 11.7 99 0.1 WNW 28 39 15 21 1011.9 1012.0 0.2
15/06:00am 11.9 6.7 11.7 99 0.1 WNW 30 35 16 19 1011.9 1012.0 0.2
15/05:38am 11.8 7.0 11.6 99 0.1 NW 28 37 15 20 1011.8 1011.9 0.2
15/05:30am 11.7 7.2 11.5 99 0.1 NW 26 35 14 19 1011.5 1011.6 0.2
15/05:00am 11.7 7.6 11.5 99 0.1 NW 24 30 13 16 1011.7 1011.8 0.2
15/04:55am 11.8 7.4 11.6 99 0.1 NW 26 32 14 17 1011.7 1011.8 0.2
15/04:30am 11.7 7.2 11.5 99 0.1 WNW 26 33 14 18 1012.2 1012.3 0.2
15/04:15am 11.7 7.2 11.5 99 0.1 WNW 26 33 14 18 1012.3 1012.4 0.2
15/04:00am 11.6 7.5 11.4 99 0.1 WNW 24 28 13 15 1012.0 1012.1 0.2
15/03:30am 11.5 8.1 11.2 98 0.2 WNW 20 26 11 14 1012.0 1012.1 0.0
15/03:22am 11.6 7.8 11.3 98 0.2 WNW 22 30 12 16 1012.4 1012.5 0.0
15/03:00am 11.6 8.2 11.1 97 0.3 WNW 20 26 11 14 1012.8 1012.9 0.0
15/02:30am 11.5 7.6 10.9 96 0.3 NW 22 28 12 15 1012.9 1013.0 0.0
15/02:00am 11.4 8.0 10.5 94 0.5 WNW 19 22 10 12 1013.6 1013.7 0.0
15/01:30am 11.2 7.4 9.8 91 0.7 NW 20 26 11 14 1014.3 1014.4 0.0
15/01:00am 11.2 7.3 9.3 88 1.0 NW 20 24 11 13 1014.9 1015.0 0.0
15/12:56am 11.2 7.3 9.3 88 1.0 NW 20 26 11 14 1015.1 1015.2 0.0
15/12:30am 11.2 6.5 9.3 88 1.0 NW 24 32 13 17 1015.5 1015.6 0.0
15/12:00am 11.1 6.3 9.0 87 1.0 WNW 24 30 13 16 1015.9 1016.0 0.0
 
Date/Time
EST
Temp
°C
App
Temp
°C
Dew
Point
°C
Rel
Hum
%
Delta-T
°C
Wind Press
QNH
hPa
Press
MSL
hPa
Rain since
9am
mm
Dir  Spd
km/h
Gust
km/h
Spd
kts
Gust
kts
14/11:30pm 10.9 5.7 8.8 87 1.0 WNW 26 32 14 17 1016.3 1016.4 0.0
14/11:00pm 10.9 4.9 8.8 87 1.0 WNW 30 35 16 19 1016.5 1016.6 0.0
14/10:30pm 11.1 5.3 9.4 89 0.9 WNW 30 37 16 20 1016.8 1016.9 0.0
14/10:00pm 11.1 6.0 9.2 88 0.9 NW 26 35 14 19 1017.3 1017.4 0.0
14/09:30pm 10.9 6.4 8.7 86 1.1 WNW 22 32 12 17 1018.2 1018.2 0.0
14/09:00pm 10.9 4.8 8.3 84 1.3 WNW 30 37 16 20 1018.8 1018.8 0.0
14/08:30pm 11.5 4.5 8.4 81 1.5 WNW 35 46 19 25 1019.0 1019.0 0.0
14/08:00pm 11.5 4.8 8.2 80 1.6 WNW 33 41 18 22 1018.0 1018.0 0.0
14/07:30pm 11.5 4.9 8.5 82 1.5 WNW 33 41 18 22 1018.3 1018.3 0.0
14/07:00pm 11.4 4.4 8.4 82 1.5 WNW 35 43 19 23 1018.1 1018.1 0.0
14/06:30pm 11.4 4.1 8.6 83 1.4 WNW 37 48 20 26 1018.5 1018.5 0.0
14/06:00pm 11.4 4.1 8.6 83 1.4 WNW 37 46 20 25 1018.6 1018.6 0.0
14/05:30pm 11.5 3.8 8.7 83 1.4 WNW 39 50 21 27 1018.5 1018.5 0.0
14/05:00pm 12.0 4.3 8.8 81 1.6 WNW 39 48 21 26 1018.4 1018.4 0.0
14/04:30pm 12.0 4.7 8.7 80 1.6 WNW 37 46 20 25 1018.4 1018.4 0.0
14/04:00pm 12.7 5.8 9.0 78 1.9 WNW 35 46 19 25 1018.6 1018.6 0.0
14/03:30pm 12.9 5.6 8.8 76 2.1 NW 37 44 20 24 1018.5 1018.5 0.0
14/03:00pm 13.3 6.4 8.8 74 2.3 NW 35 44 19 24 1018.9 1018.9 0.0
14/02:30pm 13.5 6.6 8.8 73 2.4 NW 35 44 19 24 1019.3 1019.3 0.0
14/02:00pm 13.7 6.4 8.7 72 2.5 NW 37 46 20 25 1019.4 1019.4 0.0
14/01:30pm 13.6 7.1 8.9 73 2.4 NW 33 43 18 23 1019.7 1019.7 0.0
14/01:00pm 14.0 7.5 8.8 71 2.6 NW 33 41 18 22 1019.9 1019.9 0.0
14/12:30pm 13.6 6.8 7.6 67 2.9 NW 33 41 18 22 1020.1 1020.1 0.0
14/12:00pm 14.2 7.6 7.9 66 3.1 NW 32 37 17 20 1020.3 1020.3 0.0
14/11:30am 14.7 9.2 7.7 63 3.5 WNW 26 33 14 18 1020.8 1020.8 0.0
14/11:00am 14.0 8.6 6.4 60 3.6 WNW 24 32 13 17 1020.8 1020.8 0.0
14/10:30am 14.0 8.7 6.8 62 3.5 WNW 24 30 13 16 1021.1 1021.1 0.0
14/10:00am 13.4 8.8 6.5 63 3.3 W 20 26 11 14 1021.1 1021.1 0.0
14/09:30am 12.8 8.2 6.4 65 3.0 WNW 20 24 11 13 1021.0 1021.0 0.0
14/09:00am 12.4 7.9 6.0 65 3.0 WNW 19 24 10 13 1021.1 1021.1 0.0
14/08:30am 12.2 7.6 5.6 64 3.1 W 19 26 10 14 1020.9 1020.9 0.0
14/08:00am 11.1 6.0 5.8 70 2.4 W 22 28 12 15 1020.6 1020.6 0.0
14/07:30am 10.6 5.4 5.4 70 2.4 W 22 37 12 20 1020.3 1020.3 0.0
14/07:00am 9.7 3.7 5.5 75 1.9 WNW 26 33 14 18 1020.0 1020.0 0.0
14/06:30am 8.8 3.5 4.8 76 1.8 WNW 22 24 12 13 1019.7 1019.7 0.0
14/06:00am 8.7 3.2 3.9 72 2.1 W 22 28 12 15 1019.5 1019.5 0.0
14/05:30am 9.5 2.5 3.9 68 2.5 W 30 39 16 21 1019.0 1019.0 0.0
14/05:00am 9.8 3.1 3.5 65 2.7 W 28 39 15 21 1018.6 1018.6 0.0
14/04:30am 9.4 2.7 3.4 66 2.6 W 28 37 15 20 1018.5 1018.5 0.0
14/04:00am 9.3 2.5 3.1 65 2.7 W 28 35 15 19 1018.4 1018.4 0.0
14/03:30am 8.6 4.4 3.8 72 2.1 WSW 15 28 8 15 1018.3 1018.3 0.0
14/03:00am 9.8 5.2 5.4 74 2.0 W 19 28 10 15 1018.3 1018.3 0.0
14/02:30am 8.9 5.9 5.8 81 1.4 W 11 15 6 8 1018.2 1018.2 0.0
14/02:00am 9.0 4.8 5.7 80 1.5 W 17 20 9 11 1018.3 1018.3 0.0
14/01:30am 9.8 5.2 5.6 75 1.9 WNW 19 24 10 13 1018.3 1018.3 0.0
14/01:00am 10.0 5.1 5.2 72 2.2 WNW 20 24 11 13 1018.3 1018.3 0.0
14/12:30am 8.3 4.4 5.2 81 1.4 W 15 20 8 11 1018.4 1018.4 0.0
14/12:00am 7.7 5.6 3.7 76 1.7 SSW 4 7 2 4 1018.6 1018.6 0.0
 
Date/Time
EST
Temp
°C
App
Temp
°C
Dew
Point
°C
Rel
Hum
%
Delta-T
°C
Wind Press
QNH
hPa
Press
MSL
hPa
Rain since
9am
mm
Dir  Spd
km/h
Gust
km/h
Spd
kts
Gust
kts
13/11:30pm 9.0 4.2 4.4 73 2.0 W 19 24 10 13 1018.2 1018.2 0.0
13/11:00pm 8.9 4.8 4.3 73 2.0 WSW 15 20 8 11 1018.2 1018.2 0.0
13/10:30pm 8.7 4.6 4.5 75 1.9 W 15 19 8 10 1017.7 1017.8 0.0
13/10:00pm 9.5 4.1 4.3 70 2.3 W 22 28 12 15 1017.1 1017.2 0.0
13/09:30pm 9.6 3.8 4.6 71 2.2 W 24 28 13 15 1016.6 1016.7 0.0
13/09:00pm 9.7 3.5 4.3 69 2.4 W 26 35 14 19 1016.1 1016.2 0.0
13/08:30pm 10.0 4.2 4.6 69 2.4 WSW 24 33 13 18 1015.8 1015.9 0.0
13/08:00pm 10.8 3.9 4.5 65 2.8 WSW 30 41 16 22 1015.0 1015.1 0.0
13/07:30pm 10.8 4.9 5.8 71 2.3 W 26 35 14 19 1014.5 1014.6 0.0
13/07:00pm 11.1 5.6 7.4 78 1.8 W 26 37 14 20 1014.0 1014.1 0.0
13/06:30pm 11.2 5.9 10.0 92 0.6 W 28 32 15 17 1013.3 1013.4 0.0
13/06:07pm 11.4 4.3 10.9 97 0.3 WNW 39 48 21 26 1013.0 1013.1 0.0
13/06:00pm 11.4 4.0 11.2 99 0.1 WNW 41 50 22 27 1012.8 1012.9 0.0
13/05:33pm 11.4 3.0 11.1 98 0.2 WNW 46 57 25 31 1012.9 1013.0 0.0
13/05:32pm 11.5 3.1 11.2 98 0.2 WNW 46 57 25 31 1012.9 1013.0 0.0
13/05:30pm 11.5 3.1 11.2 98 0.2 WNW 46 57 25 31 1013.0 1013.1 0.0
13/05:00pm 11.3 3.2 10.7 96 0.3 NW 44 59 24 32 1013.1 1013.2 0.0
13/04:49pm 11.3 3.3 10.5 95 0.4 WNW 43 57 23 31 1013.5 1013.6 0.0
13/04:48pm 11.3 3.1 10.5 95 0.4 WNW 44 57 24 31 1013.5 1013.6 0.0
13/04:31pm 11.5 3.4 10.1 91 0.7 WNW 43 56 23 30 1013.6 1013.7 0.0
13/04:30pm 11.5 3.4 9.9 90 0.8 WNW 43 56 23 30 1013.7 1013.8 0.0
13/04:00pm 11.1 3.0 10.0 93 0.6 WNW 43 54 23 29 1014.2 1014.3 0.0
13/03:58pm 11.2 3.1 10.1 93 0.6 WNW 43 52 23 28 1014.4 1014.5 0.0
13/03:30pm 11.8 4.4 9.7 87 1.1 WNW 39 52 21 28 1014.8 1014.9 0.0
13/03:00pm 11.9 3.5 9.1 83 1.4 WNW 43 54 23 29 1015.1 1015.2 0.0
13/02:30pm 11.6 2.9 8.6 82 1.5 NW 44 56 24 30 1015.5 1015.6 0.0
13/02:00pm 12.4 4.5 9.2 81 1.6 NW 41 54 22 29 1015.6 1015.7 0.0
13/01:55pm 12.0 3.9 8.7 80 1.6 NW 41 54 22 29 1015.7 1015.8 0.0
13/01:30pm 11.8 6.0 8.1 78 1.8 NW 28 35 15 19 1015.6 1015.7 0.0
13/01:00pm 11.6 5.7 7.7 77 1.9 NW 28 35 15 19 1016.2 1016.3 0.0
13/12:30pm 11.9 5.0 6.6 70 2.5 WNW 32 39 17 21 1017.7 1017.8 0.0
13/12:00pm 12.2 4.7 6.5 68 2.7 WNW 35 43 19 23 1018.6 1018.6 0.0
13/11:30am 11.6 4.3 7.1 74 2.2 WNW 35 43 19 23 1019.1 1019.1 0.0
13/11:00am 11.6 4.2 6.7 72 2.3 WNW 35 44 19 24 1019.3 1019.3 0.0
13/10:30am 11.5 4.6 6.6 72 2.3 NW 32 39 17 21 1019.2 1019.2 0.0

Other formats

Comma delimited format used in spreadsheet applications
http://www.bom.gov.au/fwo/IDT60801/IDT60801.95960.axf

JavaScript Object Notation format (JSON) in row-major order
http://www.bom.gov.au/fwo/IDT60801/IDT60801.95960.json

Data quality

Most of these data are generated automatically and are frequently updated. Quality checks on data are not normally performed. It is possible for incorrect values to appear. Refer to information at About Latest Weather Observations and please check the disclaimer before using these data.